createdAt,value
2019-03-24T00:01:27.139Z,7.00
2019-03-24T00:03:58.227Z,6.80
2019-03-24T00:06:29.568Z,6.80
2019-03-24T00:09:00.590Z,6.70
2019-03-24T00:11:32.019Z,6.70
2019-03-24T00:14:03.315Z,6.70
2019-03-24T00:16:34.419Z,6.80
2019-03-24T00:19:05.911Z,6.70
2019-03-24T00:21:37.249Z,6.60
2019-03-24T00:24:08.469Z,6.50
2019-03-24T00:26:39.604Z,6.40
2019-03-24T00:29:10.682Z,6.50
2019-03-24T00:31:41.937Z,6.40
2019-03-24T00:34:13.069Z,6.40
2019-03-24T00:36:45.126Z,6.20
2019-03-24T00:39:16.374Z,6.20
2019-03-24T00:41:47.435Z,6.20
2019-03-24T00:44:18.384Z,6.20
2019-03-24T00:46:49.529Z,6.10
2019-03-24T00:49:20.655Z,6.00
2019-03-24T00:51:51.785Z,6.00
2019-03-24T00:54:24.463Z,6.00
2019-03-24T00:56:55.616Z,6.00
2019-03-24T00:59:26.679Z,6.00
2019-03-24T01:01:58.208Z,6.00
2019-03-24T01:04:29.557Z,6.00
2019-03-24T01:07:00.835Z,5.90
2019-03-24T01:09:32.355Z,5.90
2019-03-24T01:12:03.500Z,5.80
2019-03-24T01:14:34.644Z,5.70
2019-03-24T01:17:05.971Z,5.60
2019-03-24T01:19:38.154Z,5.50
2019-03-24T01:22:09.222Z,5.40
2019-03-24T01:24:40.549Z,5.40
2019-03-24T01:27:11.554Z,5.50
2019-03-24T01:29:42.619Z,5.50
2019-03-24T01:32:14.118Z,5.50
2019-03-24T01:34:45.301Z,5.50
2019-03-24T01:37:16.465Z,5.30
2019-03-24T01:39:48.023Z,5.20
2019-03-24T01:42:20.278Z,5.10
2019-03-24T01:44:51.580Z,5.00
2019-03-24T01:47:22.705Z,4.90
2019-03-24T01:49:53.965Z,4.90
2019-03-24T01:52:33.104Z,5.00
2019-03-24T01:55:10.045Z,5.00
2019-03-24T01:57:41.303Z,5.00
2019-03-24T02:00:24.297Z,5.00
2019-03-24T02:02:57.166Z,5.10
2019-03-24T02:05:35.607Z,5.10
2019-03-24T02:08:27.122Z,5.10
2019-03-24T02:10:58.070Z,5.10
2019-03-24T02:13:59.619Z,5.10
2019-03-24T02:16:30.756Z,5.10
2019-03-24T02:19:08.789Z,5.10
2019-03-24T02:21:46.125Z,5.00
2019-03-24T02:24:17.114Z,4.90
2019-03-24T02:26:48.151Z,4.90
2019-03-24T02:29:19.140Z,4.80
2019-03-24T02:31:50.179Z,4.70
2019-03-24T02:34:23.205Z,4.70
2019-03-24T02:36:59.458Z,4.70
2019-03-24T02:42:40.246Z,4.50
2019-03-24T02:45:35.841Z,4.50
2019-03-24T02:48:16.664Z,4.50
2019-03-24T02:51:06.708Z,4.40
2019-03-24T02:54:04.147Z,4.40
2019-03-24T02:57:11.257Z,4.50
2019-03-24T02:59:47.028Z,4.50
2019-03-24T03:02:21.527Z,4.50
2019-03-24T03:04:52.582Z,4.60
2019-03-24T03:07:23.810Z,4.60
2019-03-24T03:09:54.778Z,4.60
2019-03-24T03:12:28.873Z,4.60
2019-03-24T03:15:14.488Z,4.60
2019-03-24T03:17:51.509Z,4.60
2019-03-24T03:20:22.683Z,4.50
2019-03-24T03:22:53.846Z,4.40
2019-03-24T03:25:25.104Z,4.30
2019-03-24T03:27:59.610Z,4.20
2019-03-24T03:30:30.585Z,4.20
2019-03-24T03:33:15.158Z,4.20
2019-03-24T03:35:49.531Z,4.20
2019-03-24T03:38:21.886Z,4.20
2019-03-24T03:40:57.312Z,4.10
2019-03-24T03:43:28.709Z,4.00
2019-03-24T03:46:09.756Z,4.00
2019-03-24T03:48:43.190Z,4.00
2019-03-24T03:51:15.486Z,4.10
2019-03-24T03:53:46.605Z,4.10
2019-03-24T03:56:39.060Z,4.00
2019-03-24T03:59:13.541Z,3.90
2019-03-24T04:01:47.571Z,3.80
2019-03-24T04:04:26.571Z,3.70
2019-03-24T04:06:57.669Z,3.60
2019-03-24T04:09:33.061Z,3.50
2019-03-24T04:12:17.407Z,3.40
2019-03-24T04:14:50.075Z,3.30
2019-03-24T04:17:32.301Z,3.20
2019-03-24T04:20:21.170Z,3.20
2019-03-24T04:22:55.886Z,3.20
2019-03-24T04:25:40.042Z,3.00
2019-03-24T04:28:32.146Z,2.90
2019-03-24T04:31:11.413Z,2.90
2019-03-24T04:34:08.146Z,2.90
2019-03-24T04:36:34.190Z,3.00
2019-03-24T04:39:21.568Z,3.00
2019-03-24T04:42:05.018Z,3.10
2019-03-24T04:45:01.025Z,3.20
2019-03-24T04:47:54.679Z,3.20
2019-03-24T04:50:52.857Z,3.30
2019-03-24T04:53:44.526Z,3.40
2019-03-24T04:56:23.276Z,3.40
2019-03-24T04:59:16.099Z,3.50
2019-03-24T05:01:53.078Z,3.50
2019-03-24T05:05:14.876Z,3.50
2019-03-24T05:08:10.107Z,3.50
2019-03-24T05:10:49.346Z,3.60
2019-03-24T05:13:30.218Z,3.60
2019-03-24T05:16:16.385Z,3.60
2019-03-24T05:18:59.081Z,3.60
2019-03-24T05:21:30.177Z,3.60
2019-03-24T05:24:01.148Z,3.50
2019-03-24T05:26:45.748Z,3.40
2019-03-24T05:29:17.116Z,3.30
2019-03-24T05:31:49.991Z,3.30
2019-03-24T05:34:21.048Z,3.30
2019-03-24T05:36:56.385Z,3.20
2019-03-24T05:39:27.354Z,3.20
2019-03-24T05:41:58.677Z,3.20
2019-03-24T05:44:29.791Z,3.30
2019-03-24T05:47:01.051Z,3.30
2019-03-24T05:49:38.521Z,3.40
2019-03-24T05:52:17.553Z,3.50
2019-03-24T05:54:48.566Z,3.50
2019-03-24T05:57:20.884Z,3.60
2019-03-24T05:59:55.096Z,3.70
2019-03-24T06:02:26.365Z,3.80
2019-03-24T06:04:57.589Z,3.90
2019-03-24T06:07:32.001Z,4.10
2019-03-24T06:10:02.987Z,4.20
2019-03-24T06:12:36.977Z,4.40
2019-03-24T06:15:17.533Z,4.50
2019-03-24T06:17:48.667Z,4.60
2019-03-24T06:20:19.827Z,4.70
2019-03-24T06:23:00.736Z,4.80
2019-03-24T06:25:34.844Z,4.80
2019-03-24T06:28:27.072Z,4.90
2019-03-24T06:31:01.814Z,4.90
2019-03-24T06:33:40.000Z,5.00
2019-03-24T06:36:18.841Z,5.10
2019-03-24T06:38:57.526Z,5.20
2019-03-24T06:41:40.147Z,5.20
2019-03-24T06:44:11.267Z,5.30
2019-03-24T06:46:45.483Z,5.40
2019-03-24T06:49:16.686Z,5.50
2019-03-24T06:51:51.839Z,5.60
2019-03-24T06:54:22.916Z,5.60
2019-03-24T06:56:53.875Z,5.60
2019-03-24T06:59:24.857Z,5.70
2019-03-24T07:01:55.840Z,5.70
2019-03-24T07:04:30.155Z,5.70
2019-03-24T07:07:01.286Z,5.80
2019-03-24T07:09:33.977Z,5.90
2019-03-24T07:12:05.025Z,6.00
2019-03-24T07:14:39.300Z,6.00
2019-03-24T07:17:10.477Z,6.00
2019-03-24T07:19:41.837Z,6.10
2019-03-24T07:22:13.066Z,6.20
2019-03-24T07:24:44.115Z,6.20
2019-03-24T07:27:15.407Z,6.10
2019-03-24T07:29:47.629Z,6.20
2019-03-24T07:32:18.686Z,6.20
2019-03-24T07:34:49.746Z,6.10
2019-03-24T07:37:20.868Z,6.10
2019-03-24T07:40:00.791Z,6.20
2019-03-24T07:42:31.919Z,6.20
2019-03-24T07:45:03.087Z,6.30
2019-03-24T07:47:34.058Z,6.40
2019-03-24T07:50:06.909Z,6.50
2019-03-24T07:52:39.704Z,6.60
2019-03-24T07:55:13.162Z,6.60
2019-03-24T07:57:44.223Z,6.60
2019-03-24T08:00:20.442Z,6.60
2019-03-24T08:02:54.581Z,6.70
2019-03-24T08:05:25.574Z,6.80
2019-03-24T08:07:56.700Z,6.90
2019-03-24T08:10:29.055Z,7.10
2019-03-24T08:13:00.342Z,7.20
2019-03-24T08:15:31.544Z,7.30
2019-03-24T08:18:02.516Z,7.20
2019-03-24T08:20:33.523Z,7.30
2019-03-24T08:23:04.781Z,7.40
2019-03-24T08:25:39.541Z,7.40
2019-03-24T08:28:23.809Z,7.40
2019-03-24T08:31:03.897Z,7.50
2019-03-24T08:33:35.085Z,7.70
2019-03-24T08:38:36.417Z,7.60
2019-03-24T08:41:07.559Z,7.50
2019-03-24T08:43:38.670Z,7.50
2019-03-24T08:46:09.824Z,7.40
2019-03-24T08:48:41.299Z,7.40
2019-03-24T08:51:12.570Z,7.30
2019-03-24T08:53:50.963Z,7.40
2019-03-24T08:56:24.459Z,7.50
2019-03-24T08:58:55.549Z,7.60
2019-03-24T09:01:26.845Z,7.70
2019-03-24T09:04:00.340Z,7.90
2019-03-24T09:06:31.568Z,8.20
2019-03-24T09:09:02.968Z,8.40
2019-03-24T09:11:34.180Z,8.50
2019-03-24T09:14:05.644Z,8.40
2019-03-24T09:16:36.883Z,8.30
2019-03-24T09:19:10.431Z,8.20
2019-03-24T09:21:41.519Z,8.20
2019-03-24T09:24:12.622Z,8.30
2019-03-24T09:26:43.624Z,8.50
2019-03-24T09:29:14.753Z,8.50
2019-03-24T09:31:45.894Z,8.50
2019-03-24T09:34:17.023Z,8.60
2019-03-24T09:36:48.454Z,8.90
2019-03-24T09:39:19.474Z,9.00
2019-03-24T09:41:50.658Z,9.00
2019-03-24T09:44:23.785Z,9.10
2019-03-24T09:46:55.221Z,9.20
2019-03-24T09:49:26.312Z,9.10
2019-03-24T09:51:57.764Z,9.20
2019-03-24T09:54:29.053Z,9.50
2019-03-24T09:57:00.426Z,9.60
2019-03-24T09:59:32.513Z,9.60
2019-03-24T10:02:03.648Z,9.50
2019-03-24T10:04:35.068Z,9.90
2019-03-24T10:07:06.521Z,10.30
2019-03-24T10:09:37.880Z,10.80
2019-03-24T10:12:09.337Z,11.30
2019-03-24T10:14:40.775Z,11.50
2019-03-24T10:17:12.206Z,11.40
2019-03-24T10:19:43.406Z,11.30
2019-03-24T10:22:15.926Z,11.40
2019-03-24T10:24:47.252Z,11.40
2019-03-24T10:27:18.888Z,11.30
2019-03-24T10:29:50.406Z,11.10
2019-03-24T10:32:21.747Z,10.80
2019-03-24T10:34:53.096Z,10.30
2019-03-24T10:37:24.571Z,10.10
2019-03-24T10:39:55.987Z,10.00
2019-03-24T10:42:27.321Z,10.10
2019-03-24T10:44:58.360Z,10.40
2019-03-24T10:47:29.785Z,10.50
2019-03-24T10:50:00.866Z,10.60
2019-03-24T10:52:33.668Z,10.60
2019-03-24T10:55:05.830Z,10.60
2019-03-24T10:57:37.176Z,10.60
2019-03-24T11:00:26.387Z,11.20
2019-03-24T11:02:58.072Z,11.60
2019-03-24T11:05:29.953Z,11.90
2019-03-24T11:08:01.295Z,11.90
2019-03-24T11:10:32.572Z,12.00
2019-03-24T11:13:03.945Z,11.70
2019-03-24T11:15:35.305Z,11.90
2019-03-24T11:18:06.560Z,11.90
2019-03-24T11:20:38.348Z,11.90
2019-03-24T11:23:09.719Z,11.90
2019-03-24T11:25:41.189Z,11.80
2019-03-24T11:28:12.707Z,11.60
2019-03-24T11:30:44.049Z,11.60
2019-03-24T11:33:15.198Z,11.80
2019-03-24T11:35:46.665Z,12.00
2019-03-24T11:38:17.926Z,12.00
2019-03-24T11:40:49.546Z,12.10
2019-03-24T11:43:20.579Z,12.20
2019-03-24T11:45:51.810Z,12.10
2019-03-24T11:48:23.396Z,12.20
2019-03-24T11:50:55.045Z,12.70
2019-03-24T11:53:26.826Z,13.00
2019-03-24T11:55:58.386Z,13.10
2019-03-24T11:58:29.995Z,13.00
2019-03-24T12:01:01.575Z,12.60
2019-03-24T12:03:33.157Z,12.60
2019-03-24T12:06:14.003Z,12.20
2019-03-24T12:08:38.959Z,11.80
2019-03-24T12:11:10.286Z,11.80
2019-03-24T12:13:41.421Z,11.50
2019-03-24T12:16:12.536Z,11.50
2019-03-24T12:18:43.751Z,11.70
2019-03-24T12:21:15.326Z,11.90
2019-03-24T12:23:48.841Z,12.10
2019-03-24T12:26:19.937Z,12.10
2019-03-24T12:28:51.112Z,12.20
2019-03-24T12:31:22.491Z,12.20
2019-03-24T12:33:53.681Z,12.30
2019-03-24T12:36:24.910Z,12.50
2019-03-24T12:38:56.167Z,12.30
2019-03-24T12:41:27.677Z,12.00
2019-03-24T12:43:59.012Z,11.80
2019-03-24T12:46:30.507Z,11.90
2019-03-24T12:49:02.199Z,12.10
2019-03-24T12:51:33.488Z,12.10
2019-03-24T12:54:04.692Z,12.50
2019-03-24T12:56:36.045Z,12.60
2019-03-24T12:59:10.186Z,12.80
2019-03-24T13:01:41.541Z,12.70
2019-03-24T13:04:12.789Z,12.40
2019-03-24T13:06:44.165Z,12.30
2019-03-24T13:09:15.533Z,12.40
2019-03-24T13:11:47.052Z,12.40
2019-03-24T13:14:18.457Z,12.60
2019-03-24T13:16:49.798Z,12.20
2019-03-24T13:19:21.019Z,12.20
2019-03-24T13:21:53.490Z,12.30
2019-03-24T13:24:24.975Z,12.20
2019-03-24T13:26:56.503Z,12.00
2019-03-24T13:29:29.400Z,12.00
2019-03-24T13:32:01.854Z,11.80
2019-03-24T13:34:33.273Z,11.90
2019-03-24T13:37:04.867Z,12.00
2019-03-24T13:39:36.003Z,12.00
2019-03-24T13:42:07.470Z,11.80
2019-03-24T13:44:39.054Z,11.50
2019-03-24T13:47:10.360Z,11.70
2019-03-24T13:49:41.746Z,11.40
2019-03-24T13:52:13.232Z,11.30
2019-03-24T13:54:45.157Z,11.30
2019-03-24T13:57:16.769Z,11.30
2019-03-24T13:59:48.789Z,11.00
2019-03-24T14:02:20.486Z,10.80
2019-03-24T14:04:52.098Z,10.90
2019-03-24T14:07:23.451Z,10.70
2019-03-24T14:09:55.234Z,10.70
2019-03-24T14:12:26.634Z,10.70
2019-03-24T14:14:58.268Z,10.90
2019-03-24T14:17:29.932Z,11.20
2019-03-24T14:20:01.486Z,11.10
2019-03-24T14:22:33.114Z,10.90
2019-03-24T14:25:05.107Z,10.60
2019-03-24T14:27:39.793Z,10.60
2019-03-24T14:30:12.394Z,11.00
2019-03-24T14:32:44.417Z,10.70
2019-03-24T14:35:15.698Z,10.80
2019-03-24T14:37:47.114Z,11.00
2019-03-24T14:40:18.558Z,11.20
2019-03-24T14:42:50.037Z,10.90
2019-03-24T14:45:21.479Z,10.90
2019-03-24T14:47:53.285Z,10.80
2019-03-24T14:50:24.708Z,10.60
2019-03-24T14:52:56.158Z,10.40
2019-03-24T14:55:28.520Z,10.40
2019-03-24T14:57:59.996Z,10.40
2019-03-24T15:00:37.957Z,10.50
2019-03-24T15:03:09.428Z,10.30
2019-03-24T15:05:41.157Z,10.20
2019-03-24T15:08:12.706Z,10.20
2019-03-24T15:10:44.409Z,10.20
2019-03-24T15:13:16.279Z,10.20
2019-03-24T15:15:47.589Z,10.20
2019-03-24T15:18:18.959Z,10.10
2019-03-24T15:20:50.368Z,10.10
2019-03-24T15:23:24.931Z,10.00
2019-03-24T15:25:56.589Z,10.00
2019-03-24T15:28:28.195Z,10.10
2019-03-24T15:30:59.999Z,9.90
2019-03-24T15:33:31.286Z,10.70
2019-03-24T15:36:02.585Z,9.80
2019-03-24T15:38:34.127Z,9.60
2019-03-24T15:41:05.570Z,9.50
2019-03-24T15:43:37.028Z,9.50
2019-03-24T15:46:08.747Z,9.40
2019-03-24T15:48:40.045Z,9.30
2019-03-24T15:51:17.055Z,9.30
2019-03-24T15:53:46.382Z,9.20
2019-03-24T15:56:17.847Z,9.10
2019-03-24T15:58:49.137Z,9.00
2019-03-24T16:01:20.398Z,8.90
2019-03-24T16:03:51.605Z,8.80
2019-03-24T16:06:23.133Z,8.80
2019-03-24T16:08:54.650Z,8.70
2019-03-24T16:11:26.992Z,8.60
2019-03-24T16:13:58.365Z,8.60
2019-03-24T16:16:29.612Z,8.50
2019-03-24T16:19:00.982Z,8.50
2019-03-24T16:21:32.506Z,8.50
2019-03-24T16:24:03.843Z,8.40
2019-03-24T16:26:36.438Z,8.30
2019-03-24T16:29:08.030Z,8.30
2019-03-24T16:31:40.504Z,8.20
2019-03-24T16:34:12.148Z,8.10
2019-03-24T16:36:44.082Z,8.00
2019-03-24T16:39:15.327Z,7.90
2019-03-24T16:41:46.861Z,7.80
2019-03-24T16:44:18.519Z,7.70
2019-03-24T16:46:50.001Z,7.60
2019-03-24T16:49:21.533Z,7.50
2019-03-24T16:51:53.920Z,7.40
2019-03-24T16:54:25.276Z,7.40
2019-03-24T16:56:56.972Z,7.40
2019-03-24T16:59:28.280Z,7.40
2019-03-24T17:02:02.997Z,7.40
2019-03-24T17:04:52.806Z,7.20
2019-03-24T17:07:24.407Z,7.20
2019-03-24T17:09:56.818Z,7.10
2019-03-24T17:12:28.501Z,7.10
2019-03-24T17:15:00.756Z,7.10
2019-03-24T17:17:32.227Z,7.00
2019-03-24T17:20:03.798Z,6.90
2019-03-24T17:22:35.344Z,6.90
2019-03-24T17:25:07.629Z,6.90
2019-03-24T17:27:38.975Z,6.80
2019-03-24T17:30:12.195Z,6.70
2019-03-24T17:32:44.759Z,6.70
2019-03-24T17:35:16.523Z,6.70
2019-03-24T17:37:48.114Z,6.60
2019-03-24T17:40:19.873Z,6.60
2019-03-24T17:42:55.063Z,6.60
2019-03-24T17:45:26.761Z,6.60
2019-03-24T17:47:58.605Z,6.60
2019-03-24T17:50:30.969Z,6.60
2019-03-24T17:53:06.636Z,6.50
2019-03-24T17:55:37.827Z,6.40
2019-03-24T17:58:09.605Z,6.30
2019-03-24T18:00:56.685Z,6.20
2019-03-24T18:03:30.708Z,6.10
2019-03-24T18:06:05.035Z,6.10
2019-03-24T18:08:36.844Z,6.10
2019-03-24T18:11:10.858Z,6.10
2019-03-24T18:13:42.172Z,6.00
2019-03-24T18:16:15.972Z,6.00
2019-03-24T18:18:53.345Z,6.10
2019-03-24T18:21:34.345Z,6.00
2019-03-24T18:24:09.736Z,5.90
2019-03-24T18:26:46.967Z,5.80
2019-03-24T18:29:19.904Z,5.60
2019-03-24T18:31:51.535Z,5.60
2019-03-24T18:34:22.636Z,5.70
2019-03-24T18:36:54.588Z,5.60
2019-03-24T18:39:27.203Z,5.50
2019-03-24T18:41:58.654Z,5.40
2019-03-24T18:44:31.315Z,5.20
2019-03-24T18:47:06.860Z,5.10
2019-03-24T18:49:38.414Z,4.90
2019-03-24T18:52:22.362Z,4.80
2019-03-24T18:54:50.506Z,4.70
2019-03-24T18:57:26.157Z,4.60
2019-03-24T18:59:58.760Z,4.50
2019-03-24T19:02:32.521Z,4.40
2019-03-24T19:05:04.433Z,4.30
2019-03-24T19:07:35.879Z,4.20
2019-03-24T19:10:08.557Z,4.20
2019-03-24T19:12:40.814Z,4.30
2019-03-24T19:15:13.235Z,4.30
2019-03-24T19:17:44.764Z,4.30
2019-03-24T19:20:18.322Z,4.20
2019-03-24T19:22:49.954Z,4.20
2019-03-24T19:25:22.325Z,4.20
2019-03-24T19:27:54.165Z,4.20
2019-03-24T19:30:36.033Z,4.10
2019-03-24T19:33:08.438Z,4.10
2019-03-24T19:35:42.614Z,4.10
2019-03-24T19:38:18.723Z,4.10
2019-03-24T19:40:50.474Z,4.10
2019-03-24T19:43:22.309Z,4.20
2019-03-24T19:45:53.955Z,4.20
2019-03-24T19:48:25.753Z,4.30
2019-03-24T19:50:57.324Z,4.30
2019-03-24T19:53:28.594Z,4.30
2019-03-24T19:56:00.022Z,4.30
2019-03-24T19:58:31.677Z,4.30
2019-03-24T20:01:07.534Z,4.30
2019-03-24T20:03:39.430Z,4.30
2019-03-24T20:06:11.325Z,4.30
2019-03-24T20:08:43.863Z,4.30
2019-03-24T20:11:16.781Z,4.30
2019-03-24T20:13:48.446Z,4.30
2019-03-24T20:16:22.695Z,4.30
2019-03-24T20:18:54.853Z,4.20
2019-03-24T20:21:27.534Z,4.20
2019-03-24T20:23:59.110Z,4.20
2019-03-24T20:26:30.860Z,4.20
2019-03-24T20:29:02.348Z,4.20
2019-03-24T20:31:34.157Z,4.20
2019-03-24T20:34:06.798Z,4.20
2019-03-24T20:36:39.304Z,4.20
2019-03-24T20:39:11.152Z,4.10
2019-03-24T20:41:43.600Z,4.10
2019-03-24T20:44:16.063Z,4.10
2019-03-24T20:46:54.741Z,4.10
2019-03-24T20:49:38.755Z,4.00
2019-03-24T20:52:11.893Z,4.10
2019-03-24T20:54:46.157Z,4.10
2019-03-24T20:57:17.265Z,4.10
2019-03-24T20:59:48.724Z,4.10
2019-03-24T21:02:19.956Z,4.10
2019-03-24T21:04:52.633Z,4.10
2019-03-24T21:07:24.030Z,4.10
2019-03-24T21:09:55.392Z,4.10
2019-03-24T21:12:26.924Z,4.00
2019-03-24T21:14:57.986Z,4.10
2019-03-24T21:17:29.524Z,4.10
2019-03-24T21:20:12.646Z,4.10
2019-03-24T21:22:44.186Z,4.10
2019-03-24T21:25:15.593Z,4.00
2019-03-24T21:27:46.703Z,4.00
2019-03-24T21:30:22.127Z,4.00
2019-03-24T21:32:54.484Z,4.00
2019-03-24T21:35:25.927Z,4.00
2019-03-24T21:37:57.144Z,4.00
2019-03-24T21:40:28.434Z,3.90
2019-03-24T21:43:00.884Z,3.90
2019-03-24T21:45:35.272Z,3.90
2019-03-24T21:48:06.916Z,3.90
2019-03-24T21:50:38.181Z,3.90
2019-03-24T21:53:09.345Z,3.90
2019-03-24T21:55:40.832Z,4.00
2019-03-24T21:58:12.144Z,3.90
2019-03-24T22:00:43.469Z,3.90
2019-03-24T22:03:14.849Z,3.90
2019-03-24T22:05:46.326Z,3.90
2019-03-24T22:08:17.655Z,3.90
2019-03-24T22:10:49.034Z,4.00
2019-03-24T22:13:20.313Z,3.90
2019-03-24T22:15:51.536Z,3.90
2019-03-24T22:18:23.033Z,3.80
2019-03-24T22:20:55.637Z,3.80
2019-03-24T22:23:26.783Z,3.70
2019-03-24T22:25:58.352Z,3.70
2019-03-24T22:28:29.695Z,3.70
2019-03-24T22:31:00.983Z,3.70
2019-03-24T22:33:32.624Z,3.70
2019-03-24T22:36:04.225Z,3.70
2019-03-24T22:38:36.024Z,3.60
2019-03-24T22:41:07.469Z,3.50
2019-03-24T22:43:38.805Z,3.40
2019-03-24T22:46:09.942Z,3.40
2019-03-24T22:48:41.268Z,3.40
2019-03-24T22:51:12.607Z,3.30
2019-03-24T22:53:44.831Z,3.30
2019-03-24T22:56:16.437Z,3.30
2019-03-24T22:58:47.887Z,3.30
2019-03-24T23:01:19.229Z,3.30
2019-03-24T23:03:50.364Z,3.30
2019-03-24T23:06:21.467Z,3.30
2019-03-24T23:08:52.612Z,3.20
2019-03-24T23:11:23.816Z,3.20
2019-03-24T23:13:54.880Z,3.20
2019-03-24T23:16:25.889Z,3.10
2019-03-24T23:18:56.902Z,3.10
2019-03-24T23:21:27.826Z,3.10
2019-03-24T23:24:00.130Z,3.10
2019-03-24T23:26:31.712Z,3.10
2019-03-24T23:29:02.696Z,3.10
2019-03-24T23:31:34.258Z,3.20
2019-03-24T23:34:05.838Z,3.20
2019-03-24T23:36:36.884Z,3.20
2019-03-24T23:39:08.936Z,3.20
2019-03-24T23:41:41.736Z,3.20
2019-03-24T23:44:12.967Z,3.20
2019-03-24T23:46:44.126Z,3.30
2019-03-24T23:49:15.266Z,3.30
2019-03-24T23:51:46.398Z,3.30
2019-03-24T23:54:26.613Z,3.30
2019-03-24T23:56:50.441Z,3.20
2019-03-24T23:59:21.500Z,3.20
